aviador You're here:

KLFT Decoded Metar

LAFAYETTE in LA, USA
Report Time2018-06-21 20:53:00
UTC Time2018-06-21 21:44:19
Flight Rules vfr VFR
Wind210° at 03 kt
W.Decomp.*RWY 22: 2.9 kt HW 0.7 kt LCW
RWY 29: 0.4 kt HW 3 kt LCW
W.Rank210° ranks 10
Current wind is below 210° avg. (6.8)
Visibility9999 m
Phenomena:N/A
Clouds:Few 045 Hf
Expected CloudBase > 1,200 ft AGL from Temp-Dew spread
CeilingNone
Temp27°C (ISA +12)
Dew Point24°C (84% RH)
Heat Index30.1°C
QNH1013 hPa
Density Alt1,818 ft
Elevation36 ft
Report Wrong Elevation
Raw Report
KLFT 212053Z 21003KT 10SM FEW045 27/24 A2991 RMK AO2 SLP126 60006
T02720244 56023=

Extra information for KLFT:More info

Metar Taf Metar & Taf Last 4 Metars F.Rules Stats Wind Profile Meteogram Temp Stats Airport Information Weather charts Add Link Nearby VenuesMetar ALERT Operation Metar Decoded Social comments

AIRNAV info for KLFT